Latest Weather Observations for Cocos Island

IDW60801

Issued at 9:03 pm WST Monday 24 April 2017 (issued every 30 minutes, with the page automatically refreshed every 10 minutes)

About weather observations | Map of weather stations | Latest weather observations for WA | Other Formats
Station Details ID: 200284 Name: COCOS ISLAND AIRPORT Lat: -12.19 Lon: 96.83 Height: 3.0 m
Data from the previous 72 hours. | See also: Recent months at Cocos Island
Date/Time
WST
Temp
°C
App
Temp
°C
Dew
Point
°C
Rel
Hum
%
Delta-T
°C
Wind Press
QNH
hPa
Press
MSL
hPa
Rain since
9am
mm
Dir  Spd
km/h
Gust
km/h
Spd
kts
Gust
kts
24/09:00pm 26.0 25.4 20.5 71 3.6 SSE 24 33 13 18 1013.4 - 0.0
24/08:31pm 26.0 25.2 20.8 73 3.4 SE 26 35 14 19 1013.1 - 0.0
24/08:30pm 26.2 25.5 21.1 73 3.4 SE 26 35 14 19 1013.1 - 0.0
24/08:09pm 26.3 24.8 20.2 69 4.0 SSE 28 37 15 20 1013.0 - 0.0
24/08:00pm 26.2 25.3 20.7 71 3.6 SE 26 35 14 19 1013.0 1012.9 0.0
24/07:30pm 26.4 25.9 21.4 74 3.3 SSE 26 35 14 19 1012.7 - 0.0
24/07:00pm 26.7 25.3 21.1 71 3.7 SE 30 41 16 22 1012.4 - 0.0
24/06:30pm 27.0 25.2 21.1 70 3.9 SE 32 41 17 22 1012.3 - 0.0
24/06:00pm 27.2 26.9 22.5 75 3.2 SE 28 35 15 19 1012.1 - 0.0
24/05:30pm 27.6 26.8 22.4 73 3.5 SE 30 39 16 21 1011.9 - 0.0
24/05:00pm 27.6 27.2 22.3 73 3.6 SE 28 35 15 19 1011.8 1011.7 0.0
24/04:30pm 28.2 26.8 22.0 69 4.2 SE 32 41 17 22 1011.8 - 0.0
24/04:00pm 26.5 25.4 22.8 80 2.5 SE 33 44 18 24 1011.9 - 0.0
24/03:30pm 28.2 27.7 22.8 72 3.7 SE 30 41 16 22 1012.3 - 0.0
24/03:00pm 28.5 27.4 22.4 69 4.1 SE 32 44 17 24 1012.2 - 0.0
24/02:30pm 28.5 28.2 22.6 70 4.0 SE 28 39 15 21 1012.6 - 0.0
24/02:00pm 27.5 26.1 22.3 73 3.5 SE 33 41 18 22 1013.2 1013.1 0.0
24/01:30pm 28.4 27.3 22.5 70 4.0 SE 32 41 17 22 1013.6 - 0.0
24/01:00pm 28.3 27.9 23.0 73 3.6 SE 30 37 16 20 1013.9 - 0.0
24/12:30pm 28.4 28.4 23.0 72 3.7 SE 28 37 15 20 1014.4 - 0.0
24/12:00pm 29.1 28.6 22.9 69 4.2 SE 30 39 16 21 1014.6 - 0.0
24/11:30am 28.5 28.2 22.6 70 4.0 SE 28 41 15 22 1014.8 - 0.0
24/11:00am 28.2 27.4 22.3 70 4.0 SE 30 41 16 22 1015.0 1014.9 0.0
24/10:30am 27.9 27.2 21.8 69 4.1 SE 28 37 15 20 1015.0 - 0.0
24/10:00am 27.7 27.4 22.5 73 3.5 SE 28 35 15 19 1014.9 - 0.0
24/09:30am 27.2 26.5 21.8 72 3.6 SE 28 35 15 19 1014.7 - 0.0
24/09:00am 26.7 25.5 21.6 73 3.4 SE 30 39 16 21 1014.4 - 0.0
24/08:30am 26.2 26.0 22.0 77 2.8 SE 26 32 14 17 1014.2 - 0.0
24/08:00am 26.1 25.6 21.4 75 3.1 SSE 26 33 14 18 1013.6 1013.5 0.0
24/07:30am 25.9 26.3 21.7 77 2.8 SSE 22 32 12 17 1013.2 - 0.0
24/07:00am 26.0 26.2 22.0 78 2.7 SE 24 35 13 19 1012.9 - 0.0
24/06:30am 26.0 25.6 22.3 80 2.5 SE 28 35 15 19 1012.7 - 0.0
24/06:00am 25.9 25.8 22.2 80 2.5 SE 26 33 14 18 1012.6 - 0.0
24/05:30am 26.2 25.6 22.0 77 2.8 SE 28 37 15 20 1012.7 - 0.0
24/05:00am 25.9 25.4 22.2 80 2.5 SE 28 41 15 22 1012.5 1012.4 0.0
24/04:30am 26.1 26.1 22.4 80 2.5 SE 26 35 14 19 1012.4 - 0.0
24/04:02am 26.1 25.6 22.1 78 2.7 SE 28 35 15 19 1012.7 - 0.0
24/04:00am 26.1 25.6 22.2 79 2.6 SE 28 35 15 19 1012.7 - 0.0
24/03:38am 26.0 25.6 22.4 80 2.4 SE 28 39 15 21 1013.0 - 0.0
24/03:30am 26.2 25.8 22.3 79 2.6 SE 28 37 15 20 1013.0 - 0.0
24/03:00am 26.1 25.0 22.4 80 2.5 SE 32 39 17 21 1013.2 - 0.0
24/02:30am 26.0 25.7 22.6 81 2.3 SE 28 35 15 19 1013.8 - 0.0
24/02:00am 26.1 26.2 22.5 80 2.4 SE 26 33 14 18 1014.1 1014.0 0.0
24/01:30am 26.2 25.8 22.3 79 2.6 SE 28 37 15 20 1014.3 - 0.0
24/01:00am 26.0 26.1 22.6 81 2.3 SE 26 33 14 18 1014.4 - 0.0
24/12:30am 26.3 25.8 22.1 77 2.8 SE 28 39 15 21 1014.5 - 0.0
24/12:00am 26.1 25.7 22.4 80 2.5 SE 28 39 15 21 1014.6 - 0.0
 
Date/Time
WST
Temp
°C
App
Temp
°C
Dew
Point
°C
Rel
Hum
%
Delta-T
°C
Wind Press
QNH
hPa
Press
MSL
hPa
Rain since
9am
mm
Dir  Spd
km/h
Gust
km/h
Spd
kts
Gust
kts
23/11:30pm 26.3 26.7 22.4 79 2.6 SE 24 35 13 19 1014.8 - 0.0
23/11:00pm 26.3 26.1 22.1 77 2.8 SE 26 37 14 20 1014.9 1014.8 0.0
23/10:30pm 26.5 25.9 21.9 76 3.1 SE 28 35 15 19 1014.9 - 0.0
23/10:00pm 26.4 26.5 22.5 79 2.6 SE 26 37 14 20 1014.9 - 0.0
23/09:30pm 26.5 26.2 22.6 79 2.6 SE 28 35 15 19 1014.7 - 0.0
23/09:00pm 26.6 25.4 22.3 77 2.9 SE 32 39 17 21 1014.3 - 0.0
23/08:30pm 26.6 25.8 22.4 78 2.8 SE 30 37 16 20 1013.9 - 0.0
23/08:00pm 26.6 26.4 22.8 79 2.6 SE 28 33 15 18 1013.8 1013.7 0.0
23/07:46pm 26.7 26.1 22.7 79 2.7 SE 30 37 16 20 1013.6 - 0.0
23/07:30pm 26.8 26.6 22.8 79 2.7 SE 28 35 15 19 1013.6 - 0.0
23/07:27pm 26.8 26.6 22.7 78 2.8 SE 28 37 15 20 1013.6 - 0.0
23/07:00pm 27.0 26.8 22.7 77 2.9 SE 28 37 15 20 1013.3 - 0.0
23/06:30pm 27.0 26.8 22.7 77 2.9 SE 28 33 15 18 1013.0 - 0.0
23/06:00pm 27.3 26.9 22.4 74 3.3 SE 28 35 15 19 1012.6 - 0.0
23/05:30pm 27.3 26.7 22.6 75 3.2 SE 30 35 16 19 1012.5 - 0.0
23/05:00pm 27.7 27.6 22.2 72 3.7 SE 26 33 14 18 1012.5 1012.4 0.0
23/04:30pm 28.3 28.2 22.2 69 4.1 SE 26 33 14 18 1012.5 - 0.0
23/04:00pm 28.0 27.5 22.1 70 4.0 SE 28 35 15 19 1012.7 - 0.0
23/03:30pm 27.9 27.0 22.1 70 3.9 SE 30 35 16 19 1013.0 - 0.0
23/03:00pm 27.9 26.9 21.9 70 4.0 SE 30 37 16 20 1013.2 - 0.0
23/02:30pm 28.2 27.0 21.6 67 4.4 SE 30 39 16 21 1013.4 - 0.0
23/02:00pm 27.8 27.2 22.0 70 3.9 ESE 28 35 15 19 1013.8 1013.7 0.0
23/01:30pm 28.1 27.2 22.2 70 4.0 ESE 30 37 16 20 1014.1 - 0.0
23/01:00pm 27.7 26.5 21.6 69 4.1 SE 30 37 16 20 1014.4 - 0.0
23/12:30pm 28.0 26.2 21.2 66 4.5 SE 32 43 17 23 1014.7 - 0.0
23/12:00pm 27.8 25.8 21.8 70 4.0 ESE 35 43 19 23 1015.0 - 0.0
23/11:40am 27.7 26.1 21.9 70 3.9 SE 33 39 18 21 1015.0 - 0.0
23/11:30am 27.6 26.1 21.8 70 3.9 SE 32 39 17 21 1015.0 - 0.0
23/11:21am 28.0 26.5 22.1 70 4.0 SE 33 41 18 22 1015.0 - 0.0
23/11:00am 27.7 26.2 21.7 70 4.0 SE 32 43 17 23 1015.0 1014.9 0.4
23/10:30am 27.4 25.3 21.7 71 3.8 SE 35 44 19 24 1014.8 - 0.4
23/10:00am 27.1 25.1 21.9 73 3.5 SE 35 43 19 23 1014.5 - 0.4
23/09:30am 26.7 24.7 21.9 75 3.2 SE 35 44 19 24 1014.1 - 0.4
23/09:00am 26.5 25.1 22.3 78 2.8 SE 33 41 18 22 1013.9 - 0.4
23/08:30am 26.6 24.5 21.6 74 3.3 SE 35 46 19 25 1013.8 - 0.4
23/08:00am 26.5 25.0 22.0 76 3.0 SE 33 41 18 22 1013.6 1013.5 0.4
23/07:30am 26.4 24.5 22.1 77 2.9 SE 35 44 19 24 1013.2 - 0.4
23/07:00am 26.4 25.0 22.2 78 2.8 SE 33 43 18 23 1012.7 - 0.4
23/06:30am 26.4 25.1 22.5 79 2.6 SE 33 41 18 22 1012.4 - 0.4
23/06:00am 26.3 25.2 22.8 81 2.4 SE 33 41 18 22 1012.3 - 0.4
23/05:30am 26.4 25.0 22.2 78 2.8 SE 33 41 18 22 1012.3 - 0.4
23/05:00am 26.4 25.8 22.7 80 2.5 SE 30 37 16 20 1012.5 1012.4 0.4
23/04:30am 26.6 25.2 22.3 77 2.9 SE 33 44 18 24 1012.6 - 0.4
23/04:00am 26.5 25.4 22.8 80 2.5 SE 33 41 18 22 1012.6 - 0.4
23/03:30am 26.4 25.2 22.7 80 2.5 SE 33 39 18 21 1012.8 - 0.4
23/03:20am 26.5 25.6 22.8 80 2.5 ESE 32 39 17 21 1012.8 - 0.4
23/03:01am 26.6 25.8 23.1 81 2.4 SE 32 39 17 21 1013.2 - 0.4
23/03:00am 26.5 25.7 23.1 81 2.3 SE 32 39 17 21 1013.2 - 0.4
23/02:30am 26.6 25.7 23.1 81 2.4 SE 33 41 18 22 1013.4 - 0.4
23/02:00am 26.6 25.2 22.9 80 2.5 SE 35 48 19 26 1013.7 1013.6 0.4
23/01:30am 26.7 25.9 23.3 81 2.3 SE 33 41 18 22 1013.8 - 0.4
23/01:00am 26.7 26.2 23.5 82 2.2 SE 32 41 17 22 1014.0 - 0.4
23/12:30am 26.7 25.9 23.3 81 2.3 SE 33 43 18 23 1014.0 - 0.4
23/12:00am 26.7 26.0 23.5 82 2.2 SE 33 41 18 22 1014.1 - 0.4
 
Date/Time
WST
Temp
°C
App
Temp
°C
Dew
Point
°C
Rel
Hum
%
Delta-T
°C
Wind Press
QNH
hPa
Press
MSL
hPa
Rain since
9am
mm
Dir  Spd
km/h
Gust
km/h
Spd
kts
Gust
kts
22/11:30pm 26.7 26.6 23.5 82 2.2 SE 30 39 16 21 1014.3 - 0.4
22/11:01pm 26.5 26.7 23.4 83 2.1 ESE 28 37 15 20 1014.3 - 0.4
22/11:00pm 26.5 26.7 23.4 83 2.1 ESE 28 37 15 20 1014.3 1014.2 0.4
22/10:41pm 26.3 27.3 24.1 88 1.5 ESE 26 35 14 19 1014.3 - 0.2
22/10:30pm 26.9 26.4 23.5 81 2.3 ESE 32 39 17 21 1014.2 - 0.2
22/10:00pm 26.8 26.4 23.7 83 2.1 ESE 32 41 17 22 1014.0 - 0.2
22/09:30pm 26.6 26.2 23.7 84 2.0 ESE 32 41 17 22 1013.5 - 0.2
22/09:00pm 26.5 27.0 23.9 85 1.8 ESE 28 37 15 20 1013.3 - 0.2
22/08:30pm 26.6 27.8 23.8 84 1.9 ESE 24 35 13 19 1013.2 - 0.2
22/08:00pm 26.1 26.3 24.1 89 1.4 ESE 30 43 16 23 1013.1 1013.0 0.2
22/07:30pm 27.1 27.1 23.8 82 2.3 ESE 30 41 16 22 1013.0 - 0.2
22/07:07pm 27.2 26.8 23.7 81 2.4 SE 32 39 17 21 1012.9 - 0.2
22/07:00pm 27.3 26.8 23.5 80 2.6 SE 32 39 17 21 1012.9 - 0.2
22/06:39pm 27.6 27.5 23.5 78 2.8 ESE 30 39 16 21 1012.7 - 0.2
22/06:30pm 27.6 27.1 23.5 78 2.8 ESE 32 39 17 21 1012.7 - 0.2
22/06:00pm 27.7 27.7 23.8 79 2.7 ESE 30 39 16 21 1012.5 - 0.2
22/05:30pm 27.5 27.6 24.0 81 2.4 ESE 30 37 16 20 1012.3 - 0.2
22/05:00pm 27.7 27.4 23.8 79 2.7 ESE 32 39 17 21 1012.0 1011.9 0.2
22/04:30pm 27.7 27.9 24.1 81 2.5 ESE 30 37 16 20 1012.0 - 0.2
22/04:00pm 28.1 27.7 23.7 77 3.0 SE 32 41 17 22 1012.1 - 0.2
22/03:30pm 28.2 28.3 24.0 78 2.9 ESE 30 39 16 21 1012.4 - 0.2
22/03:00pm 28.0 28.3 23.6 77 3.0 ESE 28 35 15 19 1012.6 - 0.2
22/02:35pm 28.1 28.8 23.7 77 3.0 ESE 26 35 14 19 1012.8 - 0.2
22/02:30pm 28.2 29.8 24.5 80 2.6 ESE 24 33 13 18 1012.9 - 0.2
22/02:24pm 27.8 29.2 24.2 81 2.5 ESE 24 32 13 17 1013.0 - 0.2
22/02:00pm 28.0 30.2 24.2 80 2.6 ESE 20 32 11 17 1013.5 1013.4 0.2
22/01:30pm 27.6 29.5 23.4 78 2.9 ESE 19 26 10 14 1013.9 - 0.2
22/01:00pm 27.9 30.4 23.1 75 3.3 SE 15 19 8 10 1014.1 - 0.2
22/12:30pm 27.1 27.5 23.1 79 2.7 SE 26 32 14 17 1014.4 - 0.0
22/12:00pm 26.3 26.3 23.1 82 2.2 ESE 28 35 15 19 1014.8 - 0.0
22/11:30am 27.3 28.3 23.5 80 2.6 E 24 33 13 18 1014.8 - 0.0
22/11:04am 27.0 29.0 23.9 83 2.1 E 20 30 11 16 1014.7 - 0.0
22/11:00am 27.1 29.5 24.2 84 2.0 E 19 28 10 15 1014.7 1014.6 2.6
22/10:53am 26.9 28.6 24.1 85 1.9 E 22 30 12 16 1014.7 - 2.6
22/10:47am 26.7 28.0 24.1 86 1.8 E 24 32 13 17 1014.6 - 2.6
22/10:34am 26.8 27.9 24.3 86 1.7 E 26 33 14 18 1014.6 - 2.6
22/10:30am 26.6 28.1 24.3 87 1.6 E 24 33 13 18 1014.5 - 2.6
22/10:00am 26.5 28.7 24.2 87 1.6 ESE 20 26 11 14 1014.3 - 2.6
22/09:30am 25.6 27.6 24.0 91 1.1 ESE 20 30 11 16 1014.2 - 2.6
22/09:15am 25.5 27.5 23.9 91 1.1 E 20 30 11 16 1014.0 - 2.6
22/09:00am 25.0 27.3 24.1 95 0.6 E 19 28 10 15 1014.0 - 2.6
22/08:30am 24.7 25.8 23.7 94 0.7 ESE 24 33 13 18 1013.4 - 1.8
22/08:21am 24.9 26.3 23.6 92 0.9 ESE 22 35 12 19 1013.2 - 1.8
22/08:00am 25.1 25.8 23.6 91 1.0 E 26 35 14 19 1012.9 1012.8 1.8
22/07:30am 25.7 28.0 24.1 91 1.1 SE 19 26 10 14 1012.6 - 1.6
22/07:00am 25.3 26.4 23.7 91 1.1 SE 24 32 13 17 1012.2 - 1.6
22/06:30am 25.7 27.1 23.5 88 1.5 SE 22 30 12 16 1011.9 - 1.6
22/06:00am 25.5 26.4 23.4 88 1.4 SE 24 33 13 18 1011.7 - 1.6
22/05:30am 25.5 26.2 23.7 90 1.2 SE 26 32 14 17 1012.0 - 1.6
22/05:04am 26.0 26.9 23.4 85 1.8 SE 24 32 13 17 1011.9 - 1.6
22/05:00am 25.9 27.2 23.4 86 1.7 SE 22 32 12 17 1012.0 1011.9 1.6
22/04:53am 26.0 26.9 23.4 85 1.8 SE 24 30 13 16 1012.0 - 1.6
22/04:30am 26.0 26.9 23.4 85 1.8 SE 24 30 13 16 1012.1 - 1.6
22/04:18am 25.8 26.8 23.5 87 1.6 SE 24 28 13 15 1012.2 - 1.6
22/04:06am 25.8 27.6 23.6 88 1.5 ESE 20 28 11 15 1012.2 - 1.6
22/04:00am 25.8 27.4 23.9 89 1.3 SE 22 28 12 15 1012.3 - 1.6
22/03:30am 25.5 26.6 23.6 89 1.3 SE 24 32 13 17 1012.6 - 1.6
22/03:24am 25.4 26.6 23.8 91 1.1 SE 24 32 13 17 1012.7 - 1.6
22/03:14am 25.3 25.5 23.5 90 1.2 SE 28 35 15 19 1012.8 - 1.6
22/03:03am 25.1 25.3 23.5 91 1.1 SE 28 33 15 18 1012.9 - 1.6
22/03:00am 25.2 26.1 23.9 92 0.9 SE 26 33 14 18 1012.9 - 1.6
22/02:59am 25.2 25.7 23.9 92 0.9 SE 28 33 15 18 1012.9 - 1.6
22/02:55am 25.1 25.9 23.8 92 0.9 SE 26 33 14 18 1012.9 - 1.6
22/02:36am 25.3 25.2 23.5 90 1.2 SE 30 35 16 19 1013.1 - 1.6
22/02:30am 25.3 25.2 23.5 90 1.2 SE 30 37 16 20 1013.1 - 1.6
22/02:00am 26.1 26.3 23.5 85 1.8 SE 28 39 15 21 1013.4 1013.3 1.6
22/01:30am 26.2 26.0 22.8 81 2.3 SE 28 39 15 21 1013.7 - 1.6
22/01:18am 26.0 26.4 23.1 84 2.0 SE 26 33 14 18 1013.7 - 1.6
22/01:00am 25.7 26.6 23.3 86 1.6 SE 24 33 13 18 1013.9 - 1.6
22/12:59am 25.7 26.6 23.3 86 1.6 SE 24 33 13 18 1013.9 - 1.4
22/12:30am 26.1 26.1 23.0 83 2.1 SE 28 33 15 18 1014.0 - 1.4
22/12:00am 26.0 26.6 23.4 85 1.8 SE 26 35 14 19 1014.2 - 1.4
 
Date/Time
WST
Temp
°C
App
Temp
°C
Dew
Point
°C
Rel
Hum
%
Delta-T
°C
Wind Press
QNH
hPa
Press
MSL
hPa
Rain since
9am
mm
Dir  Spd
km/h
Gust
km/h
Spd
kts
Gust
kts
21/11:30pm 25.9 26.4 23.3 85 1.8 SE 26 35 14 19 1014.3 - 1.4
21/11:00pm 25.5 26.4 23.4 88 1.4 SE 24 32 13 17 1014.3 1014.2 1.4

Other Formats:

Comma delimited format used in spreadsheet applications
http://www.bom.gov.au/fwo/IDW60801/IDW60801.96996.axf

JavaScript Object Notation format (JSON) in row-major order
http://www.bom.gov.au/fwo/IDW60801/IDW60801.96996.json